Time;durP1;ratioP1;P1;durP2;ratioP2;P2;SDS_P1;SDS_P2;PMS_P1;PMS_P2;Temp;Humidity;BMP_temperature;BMP_pressure;BME280_temperature;BME280_humidity;BME280_pressure;Samples;Min_cycle;Max_cycle;Signal;HPM_P1;HPM_P2
2023/08/30 00:00:17;;;;;;;0.65;0.50;;;;;;;16.19;100.00;97927.66;4099338;28;20216;-47
2023/08/30 00:02:19;;;;;;;1.38;1.00;;;;;;;15.92;100.00;97925.59;4116699;28;20214;-48
2023/08/30 00:04:21;;;;;;;0.63;0.63;;;;;;;16.08;100.00;97924.25;4102014;28;20298;-47
2023/08/30 00:06:22;;;;;;;1.30;1.23;;;;;;;15.81;100.00;97926.88;4098547;28;20211;-47
2023/08/30 00:08:24;;;;;;;0.65;0.65;;;;;;;15.95;100.00;97922.25;4102346;28;20728;-46
2023/08/30 00:10:26;;;;;;;0.85;0.85;;;;;;;15.80;100.00;97927.16;4098363;28;20876;-46
2023/08/30 00:12:27;;;;;;;0.65;0.65;;;;;;;15.65;100.00;97922.69;4100528;28;20212;-45
2023/08/30 00:14:30;;;;;;;0.82;0.82;;;;;;;15.79;100.00;97923.59;4099098;28;20235;-46
2023/08/30 00:16:33;;;;;;;0.70;0.70;;;;;;;15.67;100.00;97917.69;4117916;28;20238;-47
2023/08/30 00:18:34;;;;;;;1.10;1.10;;;;;;;15.57;100.00;97915.06;4100075;28;20661;-47
2023/08/30 00:20:36;;;;;;;0.68;0.68;;;;;;;15.56;100.00;97918.94;4103726;28;20635;-46
2023/08/30 00:22:39;;;;;;;0.95;0.95;;;;;;;15.65;100.00;97922.69;4116301;28;20222;-47
2023/08/30 00:24:41;;;;;;;2.40;1.27;;;;;;;15.80;100.00;97918.88;4116095;28;20235;-46
2023/08/30 00:26:42;;;;;;;0.85;0.85;;;;;;;15.85;100.00;97916.88;4097121;28;20688;-46
2023/08/30 00:28:44;;;;;;;1.20;1.10;;;;;;;15.75;100.00;97922.53;4116314;28;20260;-46
2023/08/30 00:30:46;;;;;;;0.55;0.55;;;;;;;15.68;100.00;97916.56;4101347;28;20212;-47
2023/08/30 00:32:48;;;;;;;2.83;1.10;;;;;;;15.77;100.00;97920.28;4115772;28;20242;-46
2023/08/30 00:34:51;;;;;;;1.52;1.45;;;;;;;15.67;100.00;97925.97;4083582;29;20641;-46
2023/08/30 00:36:53;;;;;;;1.95;1.85;;;;;;;15.66;100.00;97916.06;4114334;28;20266;-46
2023/08/30 00:38:54;;;;;;;1.25;1.25;;;;;;;15.72;100.00;97912.09;4119304;28;20202;-47
2023/08/30 00:40:56;;;;;;;1.55;1.42;;;;;;;15.65;100.00;97908.91;4099750;28;20214;-46
2023/08/30 00:42:58;;;;;;;1.35;1.15;;;;;;;15.63;100.00;97911.13;4115536;28;20210;-47
2023/08/30 00:45:00;;;;;;;1.50;1.40;;;;;;;15.52;100.00;97906.88;4102624;28;20227;-47
2023/08/30 00:47:02;;;;;;;0.88;0.88;;;;;;;15.58;100.00;97905.69;4098542;28;20199;-48
2023/08/30 00:49:04;;;;;;;1.25;1.25;;;;;;;15.66;100.00;97902.25;4100546;28;20215;-46
2023/08/30 00:51:06;;;;;;;0.75;0.75;;;;;;;15.57;100.00;97903.22;4114133;28;20222;-47
2023/08/30 00:53:08;;;;;;;0.50;0.50;;;;;;;15.55;100.00;97905.47;4098514;28;20210;-46
2023/08/30 00:55:10;;;;;;;0.40;0.40;;;;;;;15.47;100.00;97906.09;4098225;28;20210;-47
2023/08/30 00:57:12;;;;;;;0.77;0.77;;;;;;;15.47;100.00;97911.63;4115983;28;20672;-46
2023/08/30 00:59:14;;;;;;;0.60;0.60;;;;;;;15.20;100.00;97912.22;4112524;28;20215;-48
2023/08/30 01:01:16;;;;;;;1.00;0.95;;;;;;;15.45;100.00;97900.91;4095736;28;20697;-46
2023/08/30 01:03:20;;;;;;;1.38;1.30;;;;;;;15.44;100.00;97910.25;4098147;28;20208;-47
2023/08/30 01:05:22;;;;;;;2.10;1.15;;;;;;;15.43;100.00;97903.13;4098558;28;20251;-47
2023/08/30 01:07:24;;;;;;;1.05;0.80;;;;;;;15.48;100.00;97903.06;4100488;28;20728;-47
2023/08/30 01:09:26;;;;;;;0.75;0.60;;;;;;;15.50;100.00;97898.06;4101952;28;20218;-46
2023/08/30 01:11:46;;;;;;;0.93;0.93;;;;;;;15.57;100.00;97901.25;4101125;28;20212;-47
2023/08/30 01:14:10;;;;;;;0.77;0.77;;;;;;;15.62;100.00;97901.19;4097766;28;20286;-47
2023/08/30 01:16:12;;;;;;;0.55;0.55;;;;;;;15.69;100.00;97901.66;4102388;28;20248;-48
2023/08/30 01:18:19;;;;;;;0.70;0.70;;;;;;;15.78;100.00;97899.88;4102736;28;20282;-47
2023/08/30 01:20:22;;;;;;;0.68;0.68;;;;;;;15.83;100.00;97897.03;4102815;28;20203;-47
2023/08/30 01:22:45;;;;;;;0.80;0.80;;;;;;;15.88;100.00;97894.19;4101840;28;20504;-46
2023/08/30 01:24:50;;;;;;;0.90;0.90;;;;;;;15.80;100.00;97889.38;4114888;28;20226;-46
2023/08/30 01:27:11;;;;;;;0.82;0.80;;;;;;;15.79;100.00;97890.47;4101963;28;20207;-46
2023/08/30 01:29:14;;;;;;;0.90;0.77;;;;;;;15.84;100.00;97887.63;4118262;28;20222;-47
2023/08/30 01:31:16;;;;;;;0.47;0.47;;;;;;;15.80;100.00;97889.38;4084719;29;20656;-47
2023/08/30 01:33:18;;;;;;;0.82;0.82;;;;;;;15.77;100.00;97880.88;4096854;28;20294;-47
2023/08/30 01:35:21;;;;;;;1.05;1.05;;;;;;;15.82;100.00;97881.59;4083687;28;20689;-46
2023/08/30 01:37:25;;;;;;;0.40;0.40;;;;;;;15.70;100.00;97881.22;4102191;28;20211;-46
2023/08/30 01:39:27;;;;;;;1.08;1.08;;;;;;;15.73;100.00;97875.13;4114525;28;20214;-46
2023/08/30 01:41:33;;;;;;;1.15;1.00;;;;;;;15.68;100.00;97872.44;4114151;28;20684;-46
2023/08/30 01:43:35;;;;;;;1.10;1.10;;;;;;;15.85;100.00;97880.19;4097676;28;20231;-46
2023/08/30 01:45:42;;;;;;;0.70;0.70;;;;;;;15.80;100.00;97881.09;4113869;28;20214;-47
2023/08/30 01:47:45;;;;;;;0.75;0.75;;;;;;;15.48;100.00;97875.47;4100334;28;20222;-47
2023/08/30 01:49:47;;;;;;;0.90;0.90;;;;;;;15.57;100.00;97879.19;4115049;28;20714;-46
2023/08/30 01:51:50;;;;;;;1.88;1.77;;;;;;;15.41;100.00;97876.94;4081877;29;20209;-46
2023/08/30 01:53:53;;;;;;;1.48;1.38;;;;;;;15.39;100.00;97874.50;4117401;28;20660;-46
2023/08/30 01:55:57;;;;;;;1.35;0.85;;;;;;;15.42;100.00;97875.84;4096858;28;20223;-47
2023/08/30 01:58:03;;;;;;;0.88;0.88;;;;;;;15.47;100.00;97876.59;4114749;28;20249;-46
2023/08/30 02:00:05;;;;;;;0.70;0.70;;;;;;;15.44;100.00;97874.41;4088345;28;20666;-46
2023/08/30 02:02:07;;;;;;;1.25;1.10;;;;;;;15.39;100.00;97877.28;4098976;28;20278;-47
2023/08/30 02:04:09;;;;;;;1.00;1.00;;;;;;;15.30;100.00;97876.22;4097100;28;20238;-47
2023/08/30 02:06:24;;;;;;;1.05;0.93;;;;;;;15.26;100.00;97879.88;4111880;28;20198;-46
2023/08/30 02:08:33;;;;;;;1.25;1.17;;;;;;;15.39;100.00;97873.69;4080913;29;20200;-47
2023/08/30 02:10:37;;;;;;;1.02;1.02;;;;;;;15.39;100.00;97879.19;4111987;28;20213;-47
2023/08/30 02:12:47;;;;;;;1.05;1.05;;;;;;;15.33;100.00;97878.44;4093411;28;20720;-47
2023/08/30 02:14:49;;;;;;;0.85;0.85;;;;;;;15.36;100.00;97880.59;4094394;28;20238;-48
2023/08/30 02:16:51;;;;;;;11.02;1.95;;;;;;;15.33;100.00;97878.44;4100414;28;20723;-47
2023/08/30 02:18:53;;;;;;;0.85;0.85;;;;;;;15.34;100.00;97880.09;4097443;28;20227;-47
2023/08/30 02:20:56;;;;;;;0.50;0.50;;;;;;;15.34;100.00;97871.81;4098614;28;20218;-47
2023/08/30 02:22:59;;;;;;;0.40;0.40;;;;;;;15.39;100.00;97873.69;4111797;28;20742;-47
2023/08/30 02:25:07;;;;;;;1.02;0.98;;;;;;;15.37;100.00;97871.22;4082237;28;20204;-48
2023/08/30 02:27:09;;;;;;;0.85;0.85;;;;;;;15.42;100.00;97870.34;4113932;28;20628;-47
2023/08/30 02:29:13;;;;;;;1.10;1.10;;;;;;;15.38;100.00;97872.88;4114845;28;20259;-47
2023/08/30 02:31:15;;;;;;;0.65;0.65;;;;;;;15.37;100.00;97862.94;4099474;28;20242;-47
2023/08/30 02:33:16;;;;;;;0.65;0.65;;;;;;;15.33;100.00;97863.84;4111695;28;20291;-47
2023/08/30 02:35:18;;;;;;;2.00;1.80;;;;;;;15.31;100.00;97863.28;4114114;28;20207;-47
2023/08/30 02:37:20;;;;;;;0.75;0.75;;;;;;;15.26;100.00;97864.19;4098941;28;20234;-48
2023/08/30 02:39:21;;;;;;;0.98;0.90;;;;;;;15.23;100.00;97863.94;4114830;28;20207;-47
2023/08/30 02:41:23;;;;;;;1.10;1.10;;;;;;;15.16;100.00;97861.53;4100530;28;20218;-47
2023/08/30 02:43:25;;;;;;;0.63;0.57;;;;;;;15.12;100.00;97860.50;4095507;28;20234;-47
2023/08/30 02:45:27;;;;;;;0.90;0.90;;;;;;;15.11;100.00;97867.09;4095799;28;20798;-46
2023/08/30 02:47:28;;;;;;;1.27;1.20;;;;;;;15.12;100.00;97866.03;4099418;28;20206;-46
2023/08/30 02:49:30;;;;;;;7.90;0.60;;;;;;;15.12;100.00;97863.25;4086827;28;20306;-47
2023/08/30 02:51:32;;;;;;;1.00;1.00;;;;;;;14.89;100.00;97863.28;4095133;28;20720;-47
2023/08/30 02:53:34;;;;;;;0.65;0.63;;;;;;;14.87;100.00;97854.47;4112605;28;20240;-46
2023/08/30 02:55:35;;;;;;;7.30;1.77;;;;;;;15.02;100.00;97860.63;4099551;28;20211;-46
2023/08/30 02:57:37;;;;;;;1.20;1.20;;;;;;;15.01;100.00;97866.41;4098525;28;20227;-48
2023/08/30 02:59:39;;;;;;;25.42;0.98;;;;;;;14.73;100.00;97873.66;4115889;28;20211;-47
2023/08/30 03:01:43;;;;;;;0.52;0.52;;;;;;;14.71;100.00;97867.59;4114168;28;20206;-46
2023/08/30 03:03:46;;;;;;;0.90;0.90;;;;;;;14.66;100.00;97866.84;4099445;28;20293;-46
2023/08/30 03:05:48;;;;;;;0.75;0.75;;;;;;;14.66;100.00;97870.41;4114257;28;20211;-46
2023/08/30 03:07:53;;;;;;;0.82;0.82;;;;;;;14.63;100.00;97868.22;4113171;28;20289;-46
2023/08/30 03:09:55;;;;;;;1.05;1.02;;;;;;;14.63;100.00;97859.97;4117735;28;20214;-47
2023/08/30 03:11:56;;;;;;;0.73;0.73;;;;;;;14.62;100.00;97866.59;4098084;28;20648;-49
2023/08/30 03:13:58;;;;;;;0.75;0.75;;;;;;;14.60;100.00;97868.84;4112356;28;20234;-48
2023/08/30 03:16:00;;;;;;;1.38;0.77;;;;;;;14.55;100.00;97866.13;4099572;28;20215;-47
2023/08/30 03:18:04;;;;;;;0.82;0.82;;;;;;;14.57;100.00;97872.16;4115152;28;20579;-47
2023/08/30 03:20:09;;;;;;;0.68;0.68;;;;;;;14.55;100.00;97863.38;4115692;28;20210;-50
2023/08/30 03:22:11;;;;;;;0.50;0.50;;;;;;;14.55;100.00;97868.88;4098988;28;20576;-48
2023/08/30 03:24:14;;;;;;;0.68;0.68;;;;;;;14.48;100.00;97859.31;4114022;28;20241;-48
2023/08/30 03:26:16;;;;;;;1.50;1.05;;;;;;;14.43;100.00;97865.69;4096878;28;20598;-48
2023/08/30 03:28:21;;;;;;;0.85;0.85;;;;;;;14.45;100.00;97866.25;4097821;28;20305;-48
2023/08/30 03:30:23;;;;;;;1.00;1.00;;;;;;;14.52;100.00;97861.22;4111077;28;20544;-47
2023/08/30 03:32:25;;;;;;;1.00;1.00;;;;;;;14.55;100.00;97857.84;4113392;28;20218;-48
2023/08/30 03:34:27;;;;;;;1.00;1.00;;;;;;;14.56;100.00;97858.69;4114069;28;20632;-47
2023/08/30 03:36:28;;;;;;;2.72;1.02;;;;;;;14.51;100.00;97867.81;4083171;29;20304;-47
2023/08/30 03:38:33;;;;;;;0.70;0.70;;;;;;;14.53;100.00;97867.53;4094424;28;20250;-48
2023/08/30 03:40:35;;;;;;;1.00;1.00;;;;;;;14.41;100.00;97867.09;4099567;28;20219;-48
2023/08/30 03:42:37;;;;;;;0.43;0.43;;;;;;;14.48;100.00;97873.91;4107438;28;20323;-48
2023/08/30 03:44:39;;;;;;;0.70;0.70;;;;;;;14.37;100.00;97877.06;4094337;28;20242;-47
2023/08/30 03:46:41;;;;;;;1.17;1.17;;;;;;;14.39;100.00;97872.91;4093331;28;20213;-48
2023/08/30 03:48:43;;;;;;;18.08;1.25;;;;;;;14.39;100.00;97878.41;4110968;28;20253;-47
2023/08/30 03:50:44;;;;;;;0.68;0.68;;;;;;;14.40;100.00;97868.19;4109612;28;20635;-47
2023/08/30 03:52:47;;;;;;;1.65;1.55;;;;;;;14.28;100.00;97871.34;4094803;28;20199;-48
2023/08/30 03:55:01;;;;;;;1.02;1.02;;;;;;;14.30;100.00;97874.63;4102116;28;20706;-47
2023/08/30 03:57:12;;;;;;;0.90;0.90;;;;;;;13.94;100.00;97867.75;4092169;28;20306;-46
2023/08/30 03:59:15;;;;;;;0.65;0.65;;;;;;;14.11;100.00;97868.16;4107941;28;20203;-47
2023/08/30 04:01:19;;;;;;;0.80;0.80;;;;;;;14.14;100.00;97878.59;4112122;28;20211;-46
2023/08/30 04:03:32;;;;;;;1.27;1.17;;;;;;;14.24;100.00;97873.03;4095902;28;20226;-46
2023/08/30 04:05:43;;;;;;;0.70;0.70;;;;;;;14.15;100.00;97874.72;4108160;28;20207;-46
2023/08/30 04:07:46;;;;;;;1.08;1.00;;;;;;;14.17;100.00;97872.50;4110384;28;20221;-45
2023/08/30 04:09:50;;;;;;;1.17;1.17;;;;;;;14.17;100.00;97868.94;4095698;28;20633;-46
2023/08/30 04:11:51;;;;;;;2.28;1.30;;;;;;;13.96;100.00;97862.78;4111234;23;20290;-64
2023/08/30 04:13:53;;;;;;;0.73;0.73;;;;;;;13.95;100.00;97865.81;4135612;28;20230;-66
2023/08/30 04:15:58;;;;;;;1.67;1.00;;;;;;;13.96;100.00;97859.22;4145026;28;20695;-66
2023/08/30 04:18:03;;;;;;;2.17;1.33;;;;;;;14.04;100.00;97859.41;4139054;28;20343;-65
2023/08/30 04:20:06;;;;;;;0.90;0.90;;;;;;;13.88;100.00;97857.91;4142341;28;20201;-66
2023/08/30 04:22:07;;;;;;;2.20;0.85;;;;;;;13.92;100.00;97859.00;4138298;28;20205;-66
2023/08/30 04:24:09;;;;;;;1.33;1.30;;;;;;;13.85;100.00;97864.00;4141425;28;20248;-66
2023/08/30 04:26:10;;;;;;;2.15;1.15;;;;;;;13.83;100.00;97863.44;4139770;28;20216;-67
2023/08/30 04:28:13;;;;;;;1.83;1.38;;;;;;;13.80;100.00;97857.69;4141685;28;20676;-67
2023/08/30 04:30:17;;;;;;;1.02;1.02;;;;;;;13.87;100.00;97867.28;4140068;28;20206;-66
2023/08/30 04:32:18;;;;;;;1.08;1.08;;;;;;;13.86;100.00;97857.38;4125136;28;20206;-65
2023/08/30 04:34:22;;;;;;;0.90;0.88;;;;;;;13.84;100.00;97859.56;4137298;28;20268;-65
2023/08/30 04:36:24;;;;;;;1.20;1.20;;;;;;;13.89;100.00;97854.03;4145245;28;20201;-66
2023/08/30 04:38:26;;;;;;;1.55;1.55;;;;;;;13.86;100.00;97854.63;4135946;28;20289;-66
2023/08/30 04:40:29;;;;;;;1.20;1.10;;;;;;;13.86;100.00;97857.38;4138868;28;20205;-66
2023/08/30 04:42:31;;;;;;;1.02;1.02;;;;;;;13.76;100.00;97860.19;4149270;28;20213;-66
2023/08/30 04:44:33;;;;;;;1.30;1.10;;;;;;;13.75;100.00;97858.56;4145147;28;20292;-66
2023/08/30 04:46:35;;;;;;;1.75;1.27;;;;;;;13.72;100.00;97864.63;4144545;28;20584;-65
2023/08/30 04:48:37;;;;;;;1.60;1.50;;;;;;;13.79;100.00;97859.63;4143110;28;20288;-65
2023/08/30 04:50:39;;;;;;;1.10;1.10;;;;;;;13.77;100.00;97855.53;4146302;28;20217;-66
2023/08/30 04:52:45;;;;;;;1.10;1.10;;;;;;;13.91;100.00;97851.00;4147688;28;20711;-66
2023/08/30 04:54:48;;;;;;;1.90;1.80;;;;;;;13.88;100.00;97846.91;4144834;28;20220;-65
2023/08/30 04:56:51;;;;;;;0.82;0.82;;;;;;;13.80;100.00;97857.69;4145689;28;20235;-65
2023/08/30 04:58:52;;;;;;;1.80;1.20;;;;;;;13.72;100.00;97855.56;4142559;28;20245;-67
2023/08/30 05:00:57;;;;;;;2.53;2.42;;;;;;;13.70;100.00;97861.34;4143890;28;20210;-66
2023/08/30 05:02:59;;;;;;;0.90;0.90;;;;;;;13.71;100.00;97868.47;4145433;28;20271;-66
2023/08/30 05:05:02;;;;;;;1.05;1.05;;;;;;;13.71;100.00;97871.22;4142582;28;20326;-66
2023/08/30 05:07:06;;;;;;;0.80;0.80;;;;;;;13.77;100.00;97867.34;4122741;28;20297;-66
2023/08/30 05:09:11;;;;;;;2.17;2.08;;;;;;;13.71;100.00;97862.16;4144847;28;20263;-66
2023/08/30 05:11:13;;;;;;;1.13;1.13;;;;;;;13.76;100.00;97868.44;4144381;28;20209;-65
2023/08/30 05:13:16;;;;;;;1.30;1.20;;;;;;;13.73;100.00;97869.03;4195566;22;20311;-66
2023/08/30 05:15:18;;;;;;;4.75;1.45;;;;;;;13.79;100.00;97870.63;4128543;28;20594;-66
2023/08/30 05:17:20;;;;;;;1.00;1.00;;;;;;;13.87;100.00;97867.28;4094741;28;20306;-66
2023/08/30 05:19:25;;;;;;;2.33;2.22;;;;;;;13.81;100.00;97868.41;4081145;29;20293;-66
2023/08/30 05:21:27;;;;;;;1.35;1.35;;;;;;;13.88;100.00;97868.06;4097813;28;20215;-66
2023/08/30 05:23:29;;;;;;;1.92;1.77;;;;;;;13.93;100.00;97868.88;4098145;28;20231;-66
2023/08/30 05:25:31;;;;;;;2.08;1.98;;;;;;;13.92;100.00;97864.50;4098140;28;20206;-66
2023/08/30 05:27:33;;;;;;;1.77;1.67;;;;;;;13.93;100.00;97871.63;4098062;28;20214;-66
2023/08/30 05:29:34;;;;;;;3.70;3.40;;;;;;;13.99;100.00;97875.97;4097207;28;20294;-66
2023/08/30 05:31:36;;;;;;;5.07;2.47;;;;;;;14.04;100.00;97873.16;4099522;28;20208;-67
2023/08/30 05:33:38;;;;;;;2.70;2.55;;;;;;;13.98;100.00;97868.81;4098439;28;20242;-66
2023/08/30 05:35:40;;;;;;;3.47;2.92;;;;;;;14.03;100.00;97866.03;4113916;28;20723;-66
2023/08/30 05:37:42;;;;;;;2.65;2.47;;;;;;;14.00;100.00;97871.28;4097687;28;20333;-66
2023/08/30 05:39:44;;;;;;;3.78;2.85;;;;;;;13.83;100.00;97870.88;4130306;28;20221;-66
2023/08/30 05:41:46;;;;;;;5.57;2.70;;;;;;;13.76;100.00;97865.69;4111799;28;20394;-66
2023/08/30 05:43:48;;;;;;;1.75;1.65;;;;;;;13.94;100.00;97859.50;4100215;28;20446;-65
2023/08/30 05:45:49;;;;;;;6.55;2.15;;;;;;;13.75;100.00;97864.06;4097411;28;20216;-66
2023/08/30 05:47:51;;;;;;;2.55;2.35;;;;;;;13.76;100.00;97859.38;4127815;28;20212;-65
2023/08/30 05:49:53;;;;;;;4.35;3.97;;;;;;;13.84;100.00;97867.03;4095445;28;20220;-66
2023/08/30 05:51:55;;;;;;;2.70;2.53;;;;;;;13.90;100.00;97866.69;4098534;28;20291;-66
2023/08/30 05:53:57;;;;;;;2.10;1.85;;;;;;;13.76;100.00;97870.38;4098474;28;20622;-66
2023/08/30 05:55:59;;;;;;;2.47;2.38;;;;;;;13.74;100.00;97869.84;4099465;28;20207;-65
2023/08/30 05:58:01;;;;;;;4.40;4.00;;;;;;;13.91;100.00;97862.81;4114721;28;20238;-66
2023/08/30 06:00:04;;;;;;;5.15;4.75;;;;;;;13.97;100.00;97867.16;4114479;28;20210;-66
2023/08/30 06:02:07;;;;;;;3.05;2.85;;;;;;;13.74;100.00;97859.66;4108790;28;20210;-66
2023/08/30 06:04:09;;;;;;;4.30;3.78;;;;;;;13.69;100.00;97859.69;4078619;29;20714;-66
2023/08/30 06:06:10;;;;;;;15.45;3.58;;;;;;;13.71;100.00;97867.66;4092529;28;20225;-66
2023/08/30 06:08:12;;;;;;;6.65;4.43;;;;;;;13.82;100.00;97867.31;4095567;28;20199;-65
2023/08/30 06:10:14;;;;;;;3.40;2.88;;;;;;;13.86;100.00;97859.31;4098834;28;20218;-65
2023/08/30 06:12:16;;;;;;;3.75;3.20;;;;;;;13.88;100.00;97857.91;4095308;28;20203;-66
2023/08/30 06:14:18;;;;;;;2.83;2.45;;;;;;;14.00;100.00;97860.28;4132447;28;20237;-66
2023/08/30 06:16:21;;;;;;;7.32;4.72;;;;;;;14.16;100.00;97859.06;4098666;28;20258;-65
2023/08/30 06:18:29;;;;;;;3.60;3.33;;;;;;;14.10;100.00;97858.25;4111841;28;20245;-67
2023/08/30 06:20:31;;;;;;;3.88;2.58;;;;;;;14.03;100.00;97854.22;4129754;28;20260;-66
2023/08/30 06:22:33;;;;;;;2.38;2.28;;;;;;;13.98;100.00;97849.56;4098763;28;20633;-65
2023/08/30 06:24:36;;;;;;;10.88;5.78;;;;;;;14.09;100.00;97851.13;4090124;28;20234;-67
2023/08/30 06:26:38;;;;;;;8.02;3.78;;;;;;;14.10;100.00;97849.19;4109108;28;20218;-66
2023/08/30 06:28:40;;;;;;;3.92;3.28;;;;;;;14.02;100.00;97856.13;4094422;28;20203;-66
2023/08/30 06:30:43;;;;;;;4.13;3.85;;;;;;;14.08;100.00;97854.97;4097721;28;20202;-66
2023/08/30 06:32:45;;;;;;;2.90;2.65;;;;;;;14.24;100.00;97861.22;4098883;28;20212;-66
2023/08/30 06:34:47;;;;;;;3.03;2.83;;;;;;;14.35;100.00;97869.06;4098903;28;20228;-66
2023/08/30 06:36:49;;;;;;;4.70;3.38;;;;;;;14.41;100.00;97867.91;4114977;28;20230;-66
2023/08/30 06:38:50;;;;;;;7.53;4.75;;;;;;;14.46;100.00;97870.63;4100932;28;20251;-66
2023/08/30 06:40:53;;;;;;;2.35;2.15;;;;;;;14.42;100.00;97869.56;4093218;28;20242;-66
2023/08/30 06:42:55;;;;;;;5.18;4.88;;;;;;;14.36;100.00;97867.16;4123445;28;20229;-68
2023/08/30 06:44:58;;;;;;;3.25;3.05;;;;;;;14.32;100.00;97861.41;4092527;28;20223;-66
2023/08/30 06:46:59;;;;;;;8.32;3.08;;;;;;;14.38;100.00;97865.72;4098107;28;20694;-66
2023/08/30 06:49:03;;;;;;;3.95;3.72;;;;;;;14.51;100.00;97873.31;4097000;28;20218;-68
2023/08/30 06:51:05;;;;;;;2.13;2.03;;;;;;;14.64;100.00;97872.63;4090527;28;20851;-67
2023/08/30 06:53:09;;;;;;;3.45;2.58;;;;;;;14.63;100.00;97878.44;4088411;28;20621;-67
2023/08/30 06:55:10;;;;;;;6.32;4.45;;;;;;;14.63;100.00;97876.50;4088906;28;20278;-66
2023/08/30 06:57:12;;;;;;;4.13;3.05;;;;;;;14.73;100.00;97875.56;4123481;28;20240;-65
2023/08/30 06:59:14;;;;;;;6.13;4.15;;;;;;;14.66;100.00;97881.44;4092730;28;20211;-67
2023/08/30 07:01:16;;;;;;;3.25;3.03;;;;;;;14.59;100.00;97878.22;4082718;28;20679;-68
2023/08/30 07:03:18;;;;;;;2.42;2.30;;;;;;;14.54;100.00;97871.91;4123138;28;20217;-66
2023/08/30 07:05:19;;;;;;;6.40;4.57;;;;;;;14.46;100.00;97867.88;4103151;28;20773;-67
2023/08/30 07:07:21;;;;;;;5.03;3.72;;;;;;;14.43;100.00;97879.44;4087868;28;20530;-67
2023/08/30 07:09:28;;;;;;;4.55;3.42;;;;;;;14.37;100.00;97879.81;4091954;28;20235;-66
2023/08/30 07:11:30;;;;;;;4.03;3.72;;;;;;;14.32;100.00;97875.19;4088503;28;20306;-66
2023/08/30 07:13:35;;;;;;;5.90;3.53;;;;;;;14.22;100.00;97877.19;4089951;28;20245;-64
2023/08/30 07:15:39;;;;;;;3.90;3.38;;;;;;;14.14;100.00;97872.25;4103262;28;20252;-65
2023/08/30 07:17:42;;;;;;;5.57;3.50;;;;;;;14.13;100.00;97874.22;4120176;28;20240;-66
2023/08/30 07:19:54;;;;;;;3.83;3.63;;;;;;;14.28;100.00;97873.25;4090284;28;20618;-66
2023/08/30 07:21:56;;;;;;;3.95;3.33;;;;;;;14.28;100.00;97863.09;4091689;28;20208;-65
2023/08/30 07:23:57;;;;;;;3.63;3.45;;;;;;;14.12;100.00;97864.31;4093260;28;20273;-66
2023/08/30 07:25:59;;;;;;;2.83;2.63;;;;;;;14.19;100.00;97864.84;4093497;28;20211;-66
2023/08/30 07:28:01;;;;;;;2.75;2.55;;;;;;;14.15;100.00;97869.22;4092894;28;20200;-66
2023/08/30 07:30:04;;;;;;;9.80;5.07;;;;;;;14.23;100.00;97881.59;4092284;28;20235;-66
2023/08/30 07:32:05;;;;;;;9.75;4.18;;;;;;;14.36;100.00;97881.72;4116565;28;20214;-63
2023/08/30 07:34:07;;;;;;;13.55;3.75;;;;;;;14.53;100.00;97876.63;4093251;28;20817;-63
2023/08/30 07:36:10;;;;;;;4.07;3.72;;;;;;;14.55;100.00;97882.63;4098245;28;20223;-64
2023/08/30 07:38:11;;;;;;;2.85;2.72;;;;;;;14.60;100.00;97877.09;4113207;28;20741;-64
2023/08/30 07:40:13;;;;;;;4.32;3.97;;;;;;;14.74;100.00;97883.53;4100545;28;20243;-64
2023/08/30 07:42:15;;;;;;;3.70;2.75;;;;;;;14.76;100.00;97875.81;4097903;28;20234;-63
2023/08/30 07:44:16;;;;;;;6.00;4.53;;;;;;;14.89;100.00;97880.63;4097173;28;20226;-63
2023/08/30 07:46:18;;;;;;;4.28;3.95;;;;;;;14.85;100.00;97876.81;4102600;28;20655;-63
2023/08/30 07:48:20;;;;;;;3.15;2.95;;;;;;;14.96;100.00;97881.09;4100395;28;20257;-63
2023/08/30 07:50:21;;;;;;;1.80;1.70;;;;;;;15.02;100.00;97874.41;4128967;28;20694;-63
2023/08/30 07:52:23;;;;;;;4.57;4.25;;;;;;;15.11;100.00;97878.13;4104566;28;20237;-63
2023/08/30 07:54:44;;;;;;;2.15;2.05;;;;;;;15.23;100.00;97889.56;4098141;28;20226;-63
2023/08/30 07:56:46;;;;;;;8.57;1.98;;;;;;;15.04;100.00;97880.44;4099295;28;20207;-64
2023/08/30 07:58:48;;;;;;;4.40;3.75;;;;;;;15.20;100.00;97876.38;4101599;28;20230;-64
2023/08/30 08:00:53;;;;;;;3.60;3.40;;;;;;;15.42;100.00;97881.38;4113550;28;20660;-63
2023/08/30 08:02:55;;;;;;;4.78;4.47;;;;;;;15.36;100.00;97885.31;4128829;28;20756;-64
2023/08/30 08:04:56;;;;;;;6.10;3.60;;;;;;;15.46;100.00;97882.41;4098420;28;20310;-64
2023/08/30 08:06:58;;;;;;;3.58;3.28;;;;;;;15.59;100.00;97879.75;4097304;28;20246;-63
2023/08/30 08:09:03;;;;;;;2.15;2.05;;;;;;;15.47;100.00;97878.53;4113193;28;20646;-64
2023/08/30 08:11:04;;;;;;;7.70;3.80;;;;;;;15.59;100.00;97890.78;4100268;28;20208;-64
2023/08/30 08:13:06;;;;;;;3.80;3.42;;;;;;;15.69;100.00;97879.59;4100022;28;20231;-64
2023/08/30 08:15:08;;;;;;;7.43;3.47;;;;;;;15.87;100.00;97892.56;4100129;28;20214;-64
2023/08/30 08:17:09;;;;;;;2.65;2.42;;;;;;;15.94;100.00;97887.50;4100549;28;20211;-64
2023/08/30 08:19:12;;;;;;;8.05;3.42;;;;;;;16.35;100.00;97891.22;4130319;28;20245;-64
2023/08/30 08:21:14;;;;;;;8.73;2.25;;;;;;;16.57;100.00;97894.16;4104553;28;20219;-64
2023/08/30 08:23:16;;;;;;;3.33;2.65;;;;;;;16.72;99.97;97895.84;4102561;28;20242;-65
2023/08/30 08:25:18;;;;;;;2.20;2.10;;;;;;;17.04;99.63;97899.34;4103443;28;20223;-64
2023/08/30 08:27:19;;;;;;;2.00;1.90;;;;;;;17.17;97.78;97895.78;4102555;28;20238;-64
2023/08/30 08:29:21;;;;;;;3.38;3.10;;;;;;;16.89;95.15;97894.13;4100660;28;20208;-65
2023/08/30 08:31:23;;;;;;;6.63;5.25;;;;;;;17.12;95.74;97904.19;4100278;28;20239;-64
2023/08/30 08:33:24;;;;;;;1.98;1.88;;;;;;;17.46;94.92;97899.09;4101043;28;20251;-65
2023/08/30 08:35:26;;;;;;;2.67;2.47;;;;;;;17.20;93.46;97900.69;4095277;28;20305;-64
2023/08/30 08:37:27;;;;;;;2.35;2.15;;;;;;;17.11;95.20;97908.09;4098892;28;20259;-64
2023/08/30 08:39:30;;;;;;;2.55;2.35;;;;;;;17.25;95.46;97892.31;4105389;28;20251;-64
2023/08/30 08:41:44;;;;;;;2.33;2.15;;;;;;;17.47;96.38;97896.00;4098285;28;20267;-64
2023/08/30 08:43:46;;;;;;;2.28;2.08;;;;;;;17.14;95.73;97900.00;4113057;28;20809;-65
2023/08/30 08:45:49;;;;;;;2.30;2.13;;;;;;;17.10;95.23;97895.38;4115449;28;20202;-64
2023/08/30 08:47:51;;;;;;;4.82;2.83;;;;;;;16.90;94.48;97895.75;4114220;28;20237;-64
2023/08/30 08:49:52;;;;;;;4.78;3.28;;;;;;;17.04;96.20;97891.06;4130954;28;20214;-64
2023/08/30 08:51:55;;;;;;;3.13;2.55;;;;;;;17.25;96.30;97893.13;4104335;28;20756;-64
2023/08/30 08:54:03;;;;;;;2.28;1.80;;;;;;;17.37;92.31;97885.16;4100445;28;20223;-64
2023/08/30 08:56:07;;;;;;;2.90;2.60;;;;;;;17.40;93.16;97889.25;4100880;28;20229;-64
2023/08/30 08:58:09;;;;;;;2.70;2.47;;;;;;;17.26;92.65;97888.41;4132309;28;20264;-64
2023/08/30 09:00:11;;;;;;;12.88;1.85;;;;;;;17.76;94.12;97898.41;4099631;28;20227;-65
2023/08/30 09:02:14;;;;;;;1.50;1.40;;;;;;;18.06;91.39;97886.63;4131090;28;20273;-64
2023/08/30 09:04:16;;;;;;;1.35;1.13;;;;;;;18.27;89.80;97890.53;4133045;28;20239;-65
2023/08/30 09:06:18;;;;;;;2.70;1.50;;;;;;;18.18;88.16;97886.91;4108912;28;20570;-64
2023/08/30 09:08:21;;;;;;;2.33;2.13;;;;;;;17.59;89.04;97892.72;4103155;28;20679;-64
2023/08/30 09:10:23;;;;;;;1.48;1.13;;;;;;;17.42;89.62;97881.44;4103598;28;20208;-62
2023/08/30 09:12:24;;;;;;;2.92;1.85;;;;;;;17.00;92.01;97895.56;4101571;28;20711;-64
2023/08/30 09:14:26;;;;;;;2.10;1.85;;;;;;;16.99;92.91;97888.41;4100017;28;20239;-64
2023/08/30 09:16:28;;;;;;;11.77;2.00;;;;;;;17.08;94.12;97886.56;4099515;28;20250;-64
2023/08/30 09:18:29;;;;;;;3.15;2.45;;;;;;;17.50;91.28;97877.94;4103134;28;20235;-64
2023/08/30 09:20:31;;;;;;;2.10;1.48;;;;;;;17.67;90.56;97878.13;4101526;28;20207;-64
2023/08/30 09:22:40;;;;;;;2.22;2.13;;;;;;;18.05;88.09;97868.38;4100813;28;20238;-64
2023/08/30 09:24:41;;;;;;;1.67;1.58;;;;;;;18.39;86.57;97868.66;4100446;28;20634;-63
2023/08/30 09:26:48;;;;;;;3.35;2.83;;;;;;;18.74;84.63;97870.50;4100265;28;20214;-64
2023/08/30 09:28:49;;;;;;;1.02;1.02;;;;;;;19.37;83.51;97871.78;4099803;28;20199;-64
2023/08/30 09:30:52;;;;;;;0.65;0.65;;;;;;;19.99;81.49;97858.47;4100078;28;20227;-64
2023/08/30 09:32:53;;;;;;;0.63;0.63;;;;;;;20.49;79.46;97863.22;4098427;28;20207;-63